Time;durP1;ratioP1;P1;durP2;ratioP2;P2;SDS_P1;SDS_P2;PMS_P1;PMS_P2;Temp;Humidity;BMP_temperature;BMP_pressure;BME280_temperature;BME280_humidity;BME280_pressure;Samples;Min_cycle;Max_cycle;Signal;HPM_P1;HPM_P2
2021/12/03 00:03:25;;;;;;;5.82;4.90;;;;;;;4.04;68.25;99626.94;10319668;28;20050;-58
2021/12/03 00:08:26;;;;;;;4.65;4.20;;;;;;;4.23;67.75;99640.63;10320453;28;20707;-58
2021/12/03 00:13:32;;;;;;;3.90;3.58;;;;;;;4.20;66.32;99651.38;10319295;28;20159;-57
2021/12/03 00:18:34;;;;;;;4.68;3.33;;;;;;;4.20;68.20;99646.09;10321200;28;20149;-57
2021/12/03 00:23:36;;;;;;;5.15;3.58;;;;;;;4.12;66.79;99632.56;10318400;28;20425;-57
2021/12/03 00:28:38;;;;;;;4.55;4.15;;;;;;;4.09;66.99;99650.34;10315642;28;20488;-58
2021/12/03 00:33:41;;;;;;;4.70;4.28;;;;;;;4.15;67.63;99663.13;10320948;28;20050;-58
2021/12/03 00:38:46;;;;;;;4.63;4.22;;;;;;;4.09;67.47;99664.34;10321516;28;20148;-59
2021/12/03 00:43:51;;;;;;;;;;;;;;;4.15;66.68;99671.88;10317728;28;20524;-58
2021/12/03 00:48:54;;;;;;;4.15;3.75;;;;;;;3.89;65.84;99662.97;10320497;28;20016;-58
2021/12/03 00:53:56;;;;;;;4.05;3.67;;;;;;;3.98;66.17;99685.22;10321759;28;20049;-57
2021/12/03 00:58:57;;;;;;;5.32;4.85;;;;;;;3.85;67.57;99693.06;10320483;28;20045;-58
2021/12/03 01:03:59;;;;;;;4.68;4.25;;;;;;;3.96;67.35;99689.75;10322017;28;20178;-58
2021/12/03 01:09:01;;;;;;;5.75;4.50;;;;;;;3.52;67.21;99683.66;10322928;28;20812;-63
2021/12/03 01:14:03;;;;;;;5.95;4.38;;;;;;;3.60;66.54;99693.72;10321380;28;20057;-59
2021/12/03 01:19:04;;;;;;;5.10;4.32;;;;;;;3.63;67.41;99683.00;10321479;28;20109;-58
2021/12/03 01:24:06;;;;;;;5.18;3.72;;;;;;;3.63;65.64;99693.53;10318303;28;20196;-58
2021/12/03 01:29:08;;;;;;;4.78;4.22;;;;;;;3.54;66.57;99689.66;10319226;28;20133;-57
2021/12/03 01:34:09;;;;;;;4.55;4.15;;;;;;;3.50;66.45;99710.06;10319908;28;20057;-58
2021/12/03 01:39:12;;;;;;;5.28;4.70;;;;;;;3.47;66.32;99710.25;10317924;28;20323;-57
2021/12/03 01:44:15;;;;;;;5.75;4.50;;;;;;;3.67;66.75;99711.66;10314614;28;20057;-57
2021/12/03 01:49:17;;;;;;;5.95;4.50;;;;;;;3.60;66.38;99706.88;10315417;28;20488;-57
2021/12/03 01:54:18;;;;;;;5.25;4.75;;;;;;;3.61;66.70;99714.69;10319560;28;20054;-58
2021/12/03 01:59:20;;;;;;;6.43;5.50;;;;;;;3.30;66.75;99670.94;10318704;28;20042;-58
2021/12/03 02:04:21;;;;;;;6.43;5.68;;;;;;;3.59;66.75;99719.19;10318145;28;20133;-58
2021/12/03 02:09:23;;;;;;;5.93;5.32;;;;;;;3.56;65.79;99723.78;10316351;28;20247;-59
2021/12/03 02:14:24;;;;;;;6.18;5.57;;;;;;;3.38;66.90;99721.31;10317631;28;20053;-58
2021/12/03 02:19:26;;;;;;;6.90;5.88;;;;;;;3.23;66.09;99723.06;10315842;28;20124;-57
2021/12/03 02:24:28;;;;;;;6.72;6.13;;;;;;;3.20;67.19;99739.03;10313775;28;20489;-58
2021/12/03 02:29:30;;;;;;;6.97;6.35;;;;;;;3.06;67.71;99731.91;10315098;28;20515;-58
2021/12/03 02:34:31;;;;;;;7.40;6.60;;;;;;;3.03;67.11;99734.72;10314930;28;20077;-58
2021/12/03 02:39:33;;;;;;;8.35;6.93;;;;;;;3.00;67.21;99733.13;10328334;28;20068;-58
2021/12/03 02:44:35;;;;;;;6.90;6.20;;;;;;;3.05;67.94;99746.03;10312813;28;20045;-58
2021/12/03 02:49:38;;;;;;;7.88;6.40;;;;;;;3.03;66.92;99739.16;10320896;28;20054;-58
2021/12/03 02:54:39;;;;;;;8.15;7.03;;;;;;;2.90;67.09;99746.88;10321116;28;20471;-57
2021/12/03 02:59:41;;;;;;;8.02;7.22;;;;;;;2.87;67.08;99757.56;10321475;28;20064;-60
2021/12/03 03:04:43;;;;;;;8.48;7.57;;;;;;;2.55;67.97;99734.81;10323283;28;20054;-58
2021/12/03 03:09:45;;;;;;;9.50;8.52;;;;;;;2.62;67.58;99756.31;10322084;28;20041;-57
2021/12/03 03:14:53;;;;;;;10.32;8.55;;;;;;;2.63;68.26;99776.44;10320269;28;20507;-57
2021/12/03 03:19:56;;;;;;;10.25;8.55;;;;;;;2.67;67.97;99771.84;10320090;28;20091;-57
2021/12/03 03:24:59;;;;;;;9.85;8.65;;;;;;;2.54;67.64;99772.53;10321284;28;20048;-59
2021/12/03 03:30:02;;;;;;;9.43;8.40;;;;;;;2.58;67.98;99778.44;10322924;28;20038;-59
2021/12/03 03:35:04;;;;;;;9.18;8.25;;;;;;;2.55;67.33;99778.59;10321775;28;20049;-58
2021/12/03 03:40:06;;;;;;;9.07;8.18;;;;;;;2.50;67.67;99765.72;10319022;28;20572;-59
2021/12/03 03:45:12;;;;;;;9.88;8.88;;;;;;;2.53;67.08;99776.06;10316015;28;20380;-58
2021/12/03 03:50:18;;;;;;;11.07;9.98;;;;;;;2.56;67.17;99782.94;10322044;28;20045;-59
2021/12/03 03:55:21;;;;;;;11.38;9.80;;;;;;;2.46;68.28;99791.34;10319421;28;20046;-59
2021/12/03 04:00:26;;;;;;;10.48;9.48;;;;;;;2.44;67.98;99801.06;10319713;28;20041;-59
2021/12/03 04:05:28;;;;;;;11.65;10.00;;;;;;;2.53;68.24;99796.25;10320766;28;20054;-58
2021/12/03 04:10:29;;;;;;;10.85;9.70;;;;;;;2.50;68.04;99793.78;10321197;28;20057;-57
2021/12/03 04:15:31;;;;;;;10.82;9.73;;;;;;;2.43;68.79;99802.00;10369052;22;20099;-63
2021/12/03 04:20:32;;;;;;;11.63;9.60;;;;;;;2.34;69.13;99801.63;10374457;28;20088;-63
2021/12/03 04:25:34;;;;;;;11.75;10.57;;;;;;;2.51;69.32;99814.72;10337698;28;20165;-63
2021/12/03 04:30:36;;;;;;;12.70;11.40;;;;;;;2.49;69.71;99821.81;10336350;28;20281;-64
2021/12/03 04:35:37;;;;;;;12.70;11.38;;;;;;;2.40;69.15;99811.81;10337208;28;20061;-63
2021/12/03 04:40:40;;;;;;;12.30;10.98;;;;;;;2.40;69.61;99807.44;10333955;28;20703;-66
2021/12/03 04:45:43;;;;;;;13.63;11.20;;;;;;;2.42;69.63;99816.06;10330242;28;20573;-67
2021/12/03 04:50:46;;;;;;;14.75;11.65;;;;;;;2.33;69.59;99811.31;10338279;28;20054;-64
2021/12/03 04:55:48;;;;;;;12.60;10.68;;;;;;;2.43;69.87;99809.88;10336224;28;20128;-63
2021/12/03 05:00:52;;;;;;;11.82;10.52;;;;;;;2.53;69.67;99812.00;10353151;28;20185;-64
2021/12/03 05:05:57;;;;;;;9.20;8.07;;;;;;;2.33;70.06;99827.06;10343439;28;20450;-66
2021/12/03 05:10:59;;;;;;;10.75;9.65;;;;;;;2.23;70.31;99815.34;10346188;28;20801;-63
2021/12/03 05:16:01;;;;;;;10.57;9.32;;;;;;;1.94;70.84;99826.44;10334565;28;20136;-64
2021/12/03 05:21:03;;;;;;;11.52;9.73;;;;;;;1.67;71.63;99823.44;10340711;28;20103;-64
2021/12/03 05:26:05;;;;;;;11.65;9.80;;;;;;;1.87;71.91;99818.97;10335098;28;20127;-63
2021/12/03 05:31:07;;;;;;;11.10;9.50;;;;;;;2.02;71.47;99812.06;10337796;28;20128;-63
2021/12/03 05:36:09;;;;;;;12.27;10.07;;;;;;;2.10;71.79;99823.88;10336027;28;20533;-69
2021/12/03 05:41:10;;;;;;;10.88;9.52;;;;;;;2.17;71.35;99820.94;10341092;28;20140;-63
2021/12/03 05:46:12;;;;;;;11.43;9.65;;;;;;;2.18;71.26;99827.84;10334311;28;20192;-63
2021/12/03 05:51:13;;;;;;;12.10;9.15;;;;;;;2.28;71.15;99834.31;10336528;28;20310;-63
2021/12/03 05:56:14;;;;;;;11.00;9.30;;;;;;;2.18;70.91;99843.63;10342835;28;20130;-64
2021/12/03 06:01:17;;;;;;;13.52;10.07;;;;;;;2.05;71.50;99843.41;10327704;28;20060;-63
2021/12/03 06:06:19;;;;;;;10.70;8.90;;;;;;;1.98;72.26;99837.63;10335009;28;20054;-63
2021/12/03 06:11:20;;;;;;;9.88;7.95;;;;;;;1.91;72.27;99841.50;10332041;28;20061;-63
2021/12/03 06:16:21;;;;;;;11.35;8.68;;;;;;;1.75;72.02;99846.69;10352310;28;20076;-62
2021/12/03 06:21:23;;;;;;;9.75;7.30;;;;;;;1.50;72.71;99847.03;10357366;28;20041;-63
2021/12/03 06:26:24;;;;;;;8.57;7.30;;;;;;;1.54;72.93;99857.31;10331563;28;20061;-63
2021/12/03 06:31:26;;;;;;;7.20;6.25;;;;;;;1.46;72.85;99866.50;10331225;28;20057;-62
2021/12/03 06:36:29;;;;;;;7.25;6.55;;;;;;;1.52;73.06;99876.69;10333028;28;20054;-62
2021/12/03 06:41:30;;;;;;;9.80;6.47;;;;;;;1.44;72.72;99894.56;10328535;28;20522;-62
2021/12/03 06:46:32;;;;;;;8.30;5.82;;;;;;;1.45;72.79;99902.38;10326504;28;20058;-63
2021/12/03 06:51:40;;;;;;;8.77;6.70;;;;;;;1.31;73.16;99900.41;10322279;28;20061;-63
2021/12/03 06:56:48;;;;;;;7.43;5.70;;;;;;;1.30;73.51;99897.88;10322212;28;20672;-63
2021/12/03 07:01:51;;;;;;;8.15;6.50;;;;;;;1.40;73.05;99910.44;10324160;28;20410;-62
2021/12/03 07:06:53;;;;;;;8.02;6.47;;;;;;;1.33;72.96;99911.66;10328977;28;20050;-63
2021/12/03 07:11:54;;;;;;;8.73;6.57;;;;;;;1.24;73.46;99918.19;10329362;28;20119;-63
2021/12/03 07:16:58;;;;;;;8.70;6.85;;;;;;;1.40;74.71;99920.94;10324420;28;20050;-57
2021/12/03 07:21:59;;;;;;;7.88;6.15;;;;;;;1.54;73.95;99932.56;10331818;28;20077;-57
2021/12/03 07:27:01;;;;;;;8.75;6.35;;;;;;;1.57;72.76;99932.41;10326785;28;20403;-62
2021/12/03 07:32:03;;;;;;;8.75;6.75;;;;;;;1.46;72.53;99926.84;10335455;28;20482;-65
2021/12/03 07:37:05;;;;;;;9.70;7.25;;;;;;;1.32;73.04;99925.72;10338068;28;20054;-63
2021/12/03 07:42:07;;;;;;;9.02;7.40;;;;;;;1.30;73.16;99930.16;10344504;28;20073;-62
2021/12/03 07:47:09;;;;;;;7.63;6.45;;;;;;;1.21;73.59;99935.84;10340282;28;20050;-62
2021/12/03 07:52:12;;;;;;;9.85;7.35;;;;;;;1.30;73.73;99935.41;10341358;28;20128;-63
2021/12/03 07:57:14;;;;;;;7.63;6.18;;;;;;;1.37;73.24;99931.59;10339314;28;20056;-62
2021/12/03 08:02:15;;;;;;;8.50;7.60;;;;;;;1.36;73.22;99944.78;10344743;28;20055;-63
2021/12/03 08:07:17;;;;;;;7.03;6.30;;;;;;;1.57;73.02;99943.72;10341103;28;20123;-63
2021/12/03 08:12:19;;;;;;;10.57;7.53;;;;;;;1.60;72.83;99948.00;10378070;28;20215;-63
2021/12/03 08:17:20;;;;;;;8.73;7.05;;;;;;;1.46;73.41;99955.69;10377650;28;20050;-62
2021/12/03 08:22:22;;;;;;;9.23;7.60;;;;;;;1.46;74.03;99937.34;10385068;28;20042;-63
2021/12/03 08:27:23;;;;;;;9.90;6.57;;;;;;;1.68;73.51;99942.38;10357196;28;20140;-63
2021/12/03 08:32:25;;;;;;;10.50;6.55;;;;;;;1.90;72.86;99936.94;10352581;28;20578;-64
2021/12/03 08:37:26;;;;;;;9.13;6.88;;;;;;;1.94;72.49;99947.19;10344163;28;20064;-63
2021/12/03 08:42:27;;;;;;;10.00;6.90;;;;;;;2.04;72.06;99947.59;10343847;28;20213;-64
2021/12/03 08:47:29;;;;;;;8.18;6.72;;;;;;;2.15;71.94;99946.19;10333697;28;20058;-64
2021/12/03 08:57:34;;;;;;;7.63;6.55;;;;;;;2.61;70.74;99941.19;10341088;28;20270;-65
2021/12/03 09:02:35;;;;;;;7.97;6.80;;;;;;;2.63;70.22;99934.94;10346205;28;20075;-64
2021/12/03 09:07:37;;;;;;;9.05;6.50;;;;;;;2.82;70.34;99945.34;10342403;28;20050;-64
2021/12/03 09:12:40;;;;;;;8.07;6.78;;;;;;;2.77;70.41;99947.34;10328047;28;20523;-64
2021/12/03 09:23:18;;;;;;;10.15;7.60;;;;;;;2.94;69.49;99940.34;10337714;28;20123;-64
2021/12/03 09:28:20;;;;;;;15.05;7.47;;;;;;;3.05;69.87;99935.38;10329518;28;20661;-63
2021/12/03 09:33:26;;;;;;;8.95;7.50;;;;;;;3.09;69.41;99936.91;10331562;28;20144;-63
2021/12/03 09:38:33;;;;;;;10.85;7.20;;;;;;;2.85;69.88;99932.94;10332162;28;20049;-63
2021/12/03 09:43:39;;;;;;;10.10;7.82;;;;;;;2.80;70.30;99935.81;10331019;28;20188;-63
2021/12/03 09:54:24;;;;;;;10.15;8.15;;;;;;;3.24;69.50;99918.56;10343365;28;20045;-64
2021/12/03 10:22:08;;;;;;;9.65;7.68;;;;;;;3.17;69.47;99937.31;10297919;28;20060;-65
2021/12/03 10:32:37;;;;;;;12.13;8.13;;;;;;;2.75;70.93;99907.16;10417498;23;20403;-61
2021/12/03 10:43:47;;;;;;;7.50;6.70;;;;;;;2.99;71.39;99904.16;10368362;28;20170;-62
2021/12/03 10:48:40;;;;;;;11.68;8.25;;;;;;;3.22;70.54;99894.13;10363817;28;20073;-63
2021/12/03 10:53:53;;;;;;;9.93;7.85;;;;;;;3.64;68.52;99892.63;10368861;28;20045;-63
2021/12/03 10:59:15;;;;;;;10.23;7.72;;;;;;;3.18;70.12;99852.22;10369613;28;20053;-65
2021/12/03 11:36:22;;;;;;;7.75;6.22;;;;;;;3.55;68.65;99838.75;10355001;28;20052;-63
2021/12/03 11:41:59;;;;;;;7.25;5.80;;;;;;;3.22;69.32;99836.25;10375917;28;20184;-63
2021/12/03 11:47:31;;;;;;;8.15;6.47;;;;;;;3.41;68.07;99821.13;10374811;28;20067;-62
2021/12/03 12:36:32;;;;;;;5.38;4.45;;;;;;;3.58;67.66;99785.91;10373719;28;20515;-61
2021/12/03 12:41:47;;;;;;;5.15;4.25;;;;;;;3.65;67.00;99802.22;10372377;28;20055;-62
2021/12/03 13:14:01;;;;;;;5.68;4.63;;;;;;;3.34;68.78;99754.00;10218830;28;20059;-63
2021/12/03 14:01:17;;;;;;;8.55;7.10;;;;;;;2.67;71.54;99709.59;10370152;28;20045;-63
2021/12/03 14:24:10;;;;;;;7.85;6.80;;;;;;;2.67;71.50;99704.34;10348234;28;19960;-63
2021/12/03 14:43:51;;;;;;;5.82;5.15;;;;;;;2.70;71.34;99703.31;10371543;28;20063;-62
2021/12/03 14:54:45;;;;;;;6.18;5.18;;;;;;;2.50;72.02;99671.13;10368702;28;20056;-63
2021/12/03 14:59:59;;;;;;;7.55;4.93;;;;;;;2.32;71.75;99645.91;10368547;28;20038;-64
2021/12/03 15:05:30;;;;;;;6.30;4.95;;;;;;;2.52;71.59;99669.25;10367220;28;20049;-64
2021/12/03 15:10:36;;;;;;;6.28;4.82;;;;;;;2.67;71.32;99672.81;10364345;28;20282;-64
2021/12/03 15:26:12;;;;;;;4.72;4.20;;;;;;;2.72;71.12;99662.91;10376433;28;20491;-65
2021/12/03 15:37:03;;;;;;;4.70;3.70;;;;;;;2.74;71.03;99674.16;10371364;28;20054;-64
2021/12/03 15:57:45;;;;;;;7.35;3.63;;;;;;;2.76;70.24;99630.25;10374420;28;20042;-64
2021/12/03 16:55:38;;;;;;;3.67;3.22;;;;;;;2.96;69.33;99584.38;10352125;28;20075;-60
2021/12/03 17:00:48;;;;;;;4.55;3.72;;;;;;;2.92;69.69;99589.91;10352568;28;20068;-61
2021/12/03 17:11:32;;;;;;;8.27;6.07;;;;;;;2.91;69.53;99565.41;10356553;28;20480;-59
2021/12/03 17:47:50;;;;;;;6.03;5.43;;;;;;;2.74;71.12;99492.81;10352191;28;20049;-59
2021/12/03 17:53:18;;;;;;;7.13;5.80;;;;;;;2.72;71.59;99486.81;10354523;28;20164;-60
2021/12/03 18:03:32;;;;;;;7.18;6.38;;;;;;;2.72;71.75;99471.03;10356152;28;20139;-60
2021/12/03 18:14:34;;;;;;;8.43;6.13;;;;;;;2.74;72.50;99471.78;10353152;28;20516;-58
2021/12/03 18:57:07;;;;;;;7.07;6.05;;;;;;;2.96;71.89;99433.69;10355573;28;20239;-60
2021/12/03 19:01:56;;;;;;;11.05;6.10;;;;;;;3.15;71.27;99422.84;10349478;28;20068;-60
2021/12/03 19:07:11;;;;;;;7.28;6.13;;;;;;;3.07;71.39;99418.06;10354927;28;20138;-61
2021/12/03 19:12:17;;;;;;;7.93;5.70;;;;;;;3.01;71.68;99405.31;10355052;28;20448;-59
2021/12/03 19:17:19;;;;;;;7.72;4.95;;;;;;;2.99;72.37;99409.81;10353664;28;20519;-59
2021/12/03 19:22:22;;;;;;;6.90;5.80;;;;;;;2.99;73.28;99391.41;10335909;28;20099;-59
2021/12/03 19:27:25;;;;;;;6.65;5.68;;;;;;;2.93;74.05;99379.50;10347494;28;20130;-60
2021/12/03 19:32:29;;;;;;;7.97;5.78;;;;;;;2.95;74.87;99374.13;10353555;28;20049;-61
2021/12/03 19:37:31;;;;;;;7.75;5.95;;;;;;;2.97;75.02;99372.25;10354941;28;20037;-60
2021/12/03 19:42:39;;;;;;;7.55;6.75;;;;;;;3.03;74.98;99369.22;10354833;28;20325;-60
2021/12/03 19:52:58;;;;;;;8.25;5.93;;;;;;;2.90;75.70;99361.28;10352965;28;20132;-60
2021/12/03 19:58:00;;;;;;;7.68;5.90;;;;;;;2.95;76.24;99345.22;10353217;28;20232;-61
2021/12/03 20:03:01;;;;;;;7.53;5.65;;;;;;;2.87;76.48;99348.34;10352919;28;20316;-61
2021/12/03 20:08:04;;;;;;;6.25;5.60;;;;;;;2.94;76.69;99348.78;10353288;28;20049;-61
2021/12/03 20:13:08;;;;;;;6.88;5.65;;;;;;;2.97;76.69;99332.81;10353441;28;20576;-59
2021/12/03 20:18:24;;;;;;;6.78;5.30;;;;;;;3.00;76.16;99330.84;10353325;28;20245;-60
2021/12/03 20:23:32;;;;;;;7.85;6.15;;;;;;;3.05;75.80;99324.44;10351733;28;20150;-60
2021/12/03 20:29:21;;;;;;;9.35;6.47;;;;;;;3.20;75.32;99318.19;10348744;28;21743;-59
2021/12/03 20:39:02;;;;;;;6.43;5.82;;;;;;;3.24;74.72;99297.78;10351166;28;20325;-60
2021/12/03 20:44:30;;;;;;;6.28;5.63;;;;;;;3.21;73.61;99290.09;10349151;28;20149;-59
2021/12/03 20:49:43;;;;;;;5.97;5.07;;;;;;;3.24;73.27;99282.84;10347830;28;20546;-59
2021/12/03 21:10:56;;;;;;;7.10;5.32;;;;;;;3.50;71.84;99260.09;10348325;28;20046;-60
2021/12/03 21:16:14;;;;;;;7.07;5.03;;;;;;;3.40;71.41;99252.91;10351943;28;20049;-60
2021/12/03 21:21:32;;;;;;;8.05;5.50;;;;;;;3.44;71.24;99242.09;10355824;28;20053;-60
2021/12/03 21:26:34;;;;;;;6.30;5.65;;;;;;;3.43;71.21;99234.28;10353488;28;20061;-60
2021/12/03 21:31:41;;;;;;;6.93;5.43;;;;;;;3.46;70.86;99229.66;10350849;28;20100;-60
2021/12/03 21:42:03;;;;;;;6.07;4.85;;;;;;;3.50;71.21;99220.63;10353806;28;20448;-60
2021/12/03 21:47:05;;;;;;;5.85;5.25;;;;;;;3.62;71.09;99207.56;10350218;28;21421;-60
2021/12/03 21:52:07;;;;;;;6.93;5.40;;;;;;;3.48;70.79;99198.84;10351409;28;20583;-60
2021/12/03 21:57:08;;;;;;;6.85;5.60;;;;;;;3.49;70.65;99189.97;10352584;28;20057;-60
2021/12/03 22:02:11;;;;;;;6.68;5.10;;;;;;;3.61;69.80;99201.47;10349987;28;20139;-60
2021/12/03 22:07:12;;;;;;;6.20;5.25;;;;;;;3.57;69.72;99175.47;10350721;28;20057;-60
2021/12/03 22:12:14;;;;;;;5.30;4.53;;;;;;;3.58;69.41;99185.03;10352769;28;20057;-60
2021/12/03 22:17:16;;;;;;;7.85;5.47;;;;;;;3.54;69.71;99181.75;10355131;28;20846;-60
2021/12/03 22:22:17;;;;;;;5.07;4.57;;;;;;;3.58;69.78;99158.72;10354167;28;20184;-60
2021/12/03 22:27:19;;;;;;;7.22;5.00;;;;;;;3.67;69.95;99158.09;10353495;28;20948;-60
2021/12/03 22:32:21;;;;;;;6.50;4.78;;;;;;;3.76;69.71;99146.09;10378119;23;20238;-62
2021/12/03 22:37:22;;;;;;;7.68;4.68;;;;;;;3.79;69.42;99124.81;10366239;28;20060;-63
2021/12/03 22:42:24;;;;;;;4.20;3.70;;;;;;;3.75;69.55;99134.69;10371220;28;20053;-63
2021/12/03 22:47:34;;;;;;;6.13;4.68;;;;;;;3.77;69.37;99127.56;10350299;28;20440;-63
2021/12/03 22:52:36;;;;;;;5.85;4.32;;;;;;;3.77;69.84;99132.81;10367283;28;20053;-62
2021/12/03 22:57:38;;;;;;;6.20;4.22;;;;;;;3.74;69.82;99127.78;10367903;28;20419;-61
2021/12/03 23:02:39;;;;;;;4.53;4.07;;;;;;;3.72;69.56;99106.81;10360986;28;20049;-61
2021/12/03 23:07:41;;;;;;;5.97;5.15;;;;;;;3.73;69.82;99105.00;10354817;28;20407;-64
2021/12/03 23:12:42;;;;;;;5.57;4.00;;;;;;;3.83;70.10;99099.97;10372206;28;20088;-61
2021/12/03 23:17:44;;;;;;;4.28;3.72;;;;;;;3.81;70.14;99092.13;10372939;28;20042;-63
2021/12/03 23:22:46;;;;;;;6.38;4.20;;;;;;;3.80;70.08;99085.22;10372724;28;20057;-62
2021/12/03 23:27:47;;;;;;;4.68;3.83;;;;;;;3.87;70.00;99088.22;10373552;28;20530;-61
2021/12/03 23:32:48;;;;;;;3.92;3.55;;;;;;;3.73;70.09;99076.06;10373452;28;20603;-61
2021/12/03 23:37:52;;;;;;;6.25;4.30;;;;;;;3.77;70.68;99077.53;10373949;28;20054;-62
2021/12/03 23:42:53;;;;;;;7.45;4.80;;;;;;;3.47;72.13;99044.53;10376793;28;20045;-63
2021/12/03 23:47:55;;;;;;;4.75;3.85;;;;;;;3.57;72.54;99026.28;10379259;28;20050;-62
2021/12/03 23:52:56;;;;;;;6.20;3.85;;;;;;;3.62;73.55;99029.47;10370442;28;20045;-62
2021/12/03 23:57:58;;;;;;;7.40;4.80;;;;;;;3.53;74.85;99020.44;10372451;28;20056;-59
